Terminal Aerodrome Forecast
Issued by NWS

Home | Current Version | Previous Version | Text Only | Print | Product List | Glossary On
Versions: 1 2 3 4 5 6 7 8 9 10 11 12 13 14 15 16 17 18 19 20 21 22 23 24 25 26 27 28 29 30 31 32 33 34 35 36 37 38 39 40 41 42 43 44 45 46 47 48 49 50
000
FTUS45 KGJT 161127
TAFEGE
TAF
KEGE 161127Z 1612/1712 35006KT P6SM VCSH SCT090
      TEMPO 1612/1613 -SHRA BKN080
     FM161300 35006KT P6SM FEW080 FEW250
     FM161800 24006KT P6SM FEW090 FEW200
     FM162000 23012G20KT P6SM FEW100 FEW180
     FM170300 19008KT P6SM FEW100 FEW250=

USA.gov is the U.S. government's official web portal to all federal, state and local government web resources and services.